sensor_id;sensor_type;location;lat;lon;timestamp;temperature;humidity
21928;DHT22;11128;51.096;17.190;2023-08-17T00:03:20;24.60;99.90
21928;DHT22;11128;51.096;17.190;2023-08-17T00:08:22;24.70;99.90
21928;DHT22;11128;51.096;17.190;2023-08-17T00:13:23;24.60;99.90
21928;DHT22;11128;51.096;17.190;2023-08-17T00:18:25;24.50;99.90
21928;DHT22;11128;51.096;17.190;2023-08-17T00:23:26;24.40;99.90
21928;DHT22;11128;51.096;17.190;2023-08-17T00:28:28;24.30;99.90
21928;DHT22;11128;51.096;17.190;2023-08-17T00:33:30;24.30;99.90
21928;DHT22;11128;51.096;17.190;2023-08-17T00:38:31;24.40;99.90
21928;DHT22;11128;51.096;17.190;2023-08-17T00:43:33;24.30;1.00
21928;DHT22;11128;51.096;17.190;2023-08-17T00:48:34;23.80;99.90
21928;DHT22;11128;51.096;17.190;2023-08-17T00:53:36;23.50;1.00
21928;DHT22;11128;51.096;17.190;2023-08-17T00:58:37;23.50;1.00
21928;DHT22;11128;51.096;17.190;2023-08-17T01:03:40;23.50;1.00
21928;DHT22;11128;51.096;17.190;2023-08-17T01:08:43;23.50;99.90
21928;DHT22;11128;51.096;17.190;2023-08-17T01:14:02;23.60;99.90
21928;DHT22;11128;51.096;17.190;2023-08-17T01:19:08;23.70;99.90
21928;DHT22;11128;51.096;17.190;2023-08-17T01:24:14;23.80;99.90
21928;DHT22;11128;51.096;17.190;2023-08-17T01:29:16;23.80;99.90
21928;DHT22;11128;51.096;17.190;2023-08-17T01:34:19;23.70;99.90
21928;DHT22;11128;51.096;17.190;2023-08-17T01:39:31;23.50;1.00
21928;DHT22;11128;51.096;17.190;2023-08-17T01:44:34;23.40;1.00
21928;DHT22;11128;51.096;17.190;2023-08-17T01:49:35;23.10;1.00
21928;DHT22;11128;51.096;17.190;2023-08-17T01:54:36;23.00;1.00
21928;DHT22;11128;51.096;17.190;2023-08-17T01:59:38;23.00;1.00
21928;DHT22;11128;51.096;17.190;2023-08-17T02:04:39;22.80;1.00
21928;DHT22;11128;51.096;17.190;2023-08-17T02:09:40;22.60;1.00
21928;DHT22;11128;51.096;17.190;2023-08-17T02:14:42;22.40;1.00
21928;DHT22;11128;51.096;17.190;2023-08-17T02:19:43;22.40;1.00
21928;DHT22;11128;51.096;17.190;2023-08-17T02:24:45;22.20;7.60
21928;DHT22;11128;51.096;17.190;2023-08-17T02:29:47;22.00;99.90
21928;DHT22;11128;51.096;17.190;2023-08-17T02:34:49;22.10;28.90
21928;DHT22;11128;51.096;17.190;2023-08-17T02:39:50;22.00;99.90
21928;DHT22;11128;51.096;17.190;2023-08-17T02:44:52;21.90;74.00
21928;DHT22;11128;51.096;17.190;2023-08-17T02:49:53;21.80;99.90
21928;DHT22;11128;51.096;17.190;2023-08-17T02:54:55;21.80;99.90
21928;DHT22;11128;51.096;17.190;2023-08-17T02:59:56;22.00;99.90
21928;DHT22;11128;51.096;17.190;2023-08-17T03:04:58;22.00;99.90
21928;DHT22;11128;51.096;17.190;2023-08-17T03:09:59;21.90;95.70
21928;DHT22;11128;51.096;17.190;2023-08-17T03:15:01;21.90;99.90
21928;DHT22;11128;51.096;17.190;2023-08-17T03:20:02;21.80;99.90
21928;DHT22;11128;51.096;17.190;2023-08-17T03:25:06;21.80;99.90
21928;DHT22;11128;51.096;17.190;2023-08-17T03:30:11;21.70;99.90
21928;DHT22;11128;51.096;17.190;2023-08-17T03:35:12;21.70;1.00
21928;DHT22;11128;51.096;17.190;2023-08-17T03:40:14;21.70;99.90
21928;DHT22;11128;51.096;17.190;2023-08-17T03:45:16;21.90;99.90
21928;DHT22;11128;51.096;17.190;2023-08-17T03:50:17;22.00;99.90
21928;DHT22;11128;51.096;17.190;2023-08-17T03:55:18;22.10;7.10
21928;DHT22;11128;51.096;17.190;2023-08-17T04:00:20;22.10;1.00
21928;DHT22;11128;51.096;17.190;2023-08-17T04:05:21;22.00;99.90
21928;DHT22;11128;51.096;17.190;2023-08-17T04:10:23;22.10;1.00
21928;DHT22;11128;51.096;17.190;2023-08-17T04:15:25;22.20;1.00
21928;DHT22;11128;51.096;17.190;2023-08-17T04:20:26;22.30;1.00
21928;DHT22;11128;51.096;17.190;2023-08-17T04:25:27;22.20;1.00
21928;DHT22;11128;51.096;17.190;2023-08-17T04:30:29;22.10;1.00
21928;DHT22;11128;51.096;17.190;2023-08-17T04:35:31;22.30;1.00
21928;DHT22;11128;51.096;17.190;2023-08-17T04:40:32;22.10;1.00
21928;DHT22;11128;51.096;17.190;2023-08-17T04:45:34;22.20;1.00
21928;DHT22;11128;51.096;17.190;2023-08-17T04:50:35;22.20;12.50
21928;DHT22;11128;51.096;17.190;2023-08-17T04:55:37;22.10;28.40
21928;DHT22;11128;51.096;17.190;2023-08-17T05:00:38;22.20;1.00
21928;DHT22;11128;51.096;17.190;2023-08-17T05:05:39;22.10;99.90
21928;DHT22;11128;51.096;17.190;2023-08-17T05:10:41;22.00;99.90
21928;DHT22;11128;51.096;17.190;2023-08-17T05:15:42;22.10;1.00
21928;DHT22;11128;51.096;17.190;2023-08-17T05:20:43;22.20;16.40
21928;DHT22;11128;51.096;17.190;2023-08-17T05:25:47;22.20;1.00
21928;DHT22;11128;51.096;17.190;2023-08-17T05:30:49;22.30;1.00
21928;DHT22;11128;51.096;17.190;2023-08-17T05:35:54;22.20;55.10
21928;DHT22;11128;51.096;17.190;2023-08-17T05:40:56;22.40;1.00
21928;DHT22;11128;51.096;17.190;2023-08-17T05:45:58;22.40;99.90
21928;DHT22;11128;51.096;17.190;2023-08-17T05:51:02;22.40;99.90
21928;DHT22;11128;51.096;17.190;2023-08-17T05:56:03;22.30;99.90
21928;DHT22;11128;51.096;17.190;2023-08-17T06:01:08;22.20;1.00
21928;DHT22;11128;51.096;17.190;2023-08-17T06:06:09;22.20;1.00
21928;DHT22;11128;51.096;17.190;2023-08-17T06:11:10;22.20;99.90
21928;DHT22;11128;51.096;17.190;2023-08-17T06:16:12;22.20;99.90
21928;DHT22;11128;51.096;17.190;2023-08-17T06:21:13;22.20;99.90
21928;DHT22;11128;51.096;17.190;2023-08-17T06:26:15;22.30;33.20
21928;DHT22;11128;51.096;17.190;2023-08-17T06:31:16;22.40;99.90
21928;DHT22;11128;51.096;17.190;2023-08-17T06:36:17;22.50;99.90
21928;DHT22;11128;51.096;17.190;2023-08-17T06:41:18;22.30;95.10
21928;DHT22;11128;51.096;17.190;2023-08-17T06:46:20;22.40;99.90
21928;DHT22;11128;51.096;17.190;2023-08-17T06:51:21;22.50;1.00
21928;DHT22;11128;51.096;17.190;2023-08-17T06:56:22;22.50;1.00
21928;DHT22;11128;51.096;17.190;2023-08-17T07:01:24;22.50;1.00
21928;DHT22;11128;51.096;17.190;2023-08-17T07:06:25;22.60;1.00
21928;DHT22;11128;51.096;17.190;2023-08-17T07:11:26;22.50;1.00
21928;DHT22;11128;51.096;17.190;2023-08-17T07:16:27;22.60;1.00
21928;DHT22;11128;51.096;17.190;2023-08-17T07:21:28;22.60;1.00
21928;DHT22;11128;51.096;17.190;2023-08-17T07:26:30;22.70;1.00
21928;DHT22;11128;51.096;17.190;2023-08-17T07:31:31;22.70;1.00
21928;DHT22;11128;51.096;17.190;2023-08-17T07:36:34;22.80;1.00
21928;DHT22;11128;51.096;17.190;2023-08-17T07:41:35;22.90;1.00
21928;DHT22;11128;51.096;17.190;2023-08-17T07:46:36;23.00;1.00
21928;DHT22;11128;51.096;17.190;2023-08-17T07:51:37;23.10;1.00
21928;DHT22;11128;51.096;17.190;2023-08-17T07:56:38;23.20;1.00
21928;DHT22;11128;51.096;17.190;2023-08-17T08:01:40;23.20;1.00
21928;DHT22;11128;51.096;17.190;2023-08-17T08:06:42;23.40;1.00
21928;DHT22;11128;51.096;17.190;2023-08-17T08:11:43;23.40;1.00
21928;DHT22;11128;51.096;17.190;2023-08-17T08:16:44;23.50;1.00
21928;DHT22;11128;51.096;17.190;2023-08-17T08:21:45;23.80;1.00
21928;DHT22;11128;51.096;17.190;2023-08-17T08:26:46;23.90;1.00
21928;DHT22;11128;51.096;17.190;2023-08-17T08:31:48;24.10;1.00
21928;DHT22;11128;51.096;17.190;2023-08-17T08:36:49;24.50;99.90
21928;DHT22;11128;51.096;17.190;2023-08-17T08:41:50;24.90;99.90
21928;DHT22;11128;51.096;17.190;2023-08-17T08:46:54;25.10;99.90
21928;DHT22;11128;51.096;17.190;2023-08-17T08:51:58;25.30;99.90
21928;DHT22;11128;51.096;17.190;2023-08-17T08:57:04;25.30;99.90
21928;DHT22;11128;51.096;17.190;2023-08-17T09:02:07;25.40;99.90
21928;DHT22;11128;51.096;17.190;2023-08-17T09:07:09;25.40;99.90
21928;DHT22;11128;51.096;17.190;2023-08-17T09:12:11;25.30;99.90
21928;DHT22;11128;51.096;17.190;2023-08-17T09:17:12;25.40;99.90
21928;DHT22;11128;51.096;17.190;2023-08-17T09:22:16;25.70;99.90
21928;DHT22;11128;51.096;17.190;2023-08-17T09:27:22;25.90;99.90
21928;DHT22;11128;51.096;17.190;2023-08-17T09:32:23;26.10;99.90
21928;DHT22;11128;51.096;17.190;2023-08-17T09:37:27;26.50;99.90
21928;DHT22;11128;51.096;17.190;2023-08-17T09:42:28;26.90;99.90
21928;DHT22;11128;51.096;17.190;2023-08-17T09:47:29;27.20;80.30
21928;DHT22;11128;51.096;17.190;2023-08-17T09:52:30;27.50;39.20
21928;DHT22;11128;51.096;17.190;2023-08-17T09:57:32;27.90;14.30
21928;DHT22;11128;51.096;17.190;2023-08-17T10:02:34;28.20;8.50
21928;DHT22;11128;51.096;17.190;2023-08-17T10:07:38;28.50;32.10
21928;DHT22;11128;51.096;17.190;2023-08-17T10:12:49;28.70;1.00
21928;DHT22;11128;51.096;17.190;2023-08-17T10:18:02;29.00;1.00
21928;DHT22;11128;51.096;17.190;2023-08-17T10:23:14;29.10;1.00
21928;DHT22;11128;51.096;17.190;2023-08-17T10:28:16;29.30;1.00
21928;DHT22;11128;51.096;17.190;2023-08-17T10:33:18;29.60;1.00
21928;DHT22;11128;51.096;17.190;2023-08-17T10:38:19;29.70;1.00
21928;DHT22;11128;51.096;17.190;2023-08-17T10:43:20;29.80;1.00
21928;DHT22;11128;51.096;17.190;2023-08-17T10:48:25;30.00;1.00
21928;DHT22;11128;51.096;17.190;2023-08-17T10:53:34;29.90;1.00
21928;DHT22;11128;51.096;17.190;2023-08-17T10:58:36;30.10;1.00
21928;DHT22;11128;51.096;17.190;2023-08-17T11:03:38;30.20;1.00
21928;DHT22;11128;51.096;17.190;2023-08-17T11:08:54;30.40;1.00
21928;DHT22;11128;51.096;17.190;2023-08-17T11:13:57;30.60;1.00
21928;DHT22;11128;51.096;17.190;2023-08-17T11:19:00;30.90;1.00
21928;DHT22;11128;51.096;17.190;2023-08-17T11:24:03;31.00;1.00
21928;DHT22;11128;51.096;17.190;2023-08-17T11:29:10;31.30;1.00
21928;DHT22;11128;51.096;17.190;2023-08-17T11:34:14;31.50;1.00
21928;DHT22;11128;51.096;17.190;2023-08-17T11:39:16;31.60;1.00
21928;DHT22;11128;51.096;17.190;2023-08-17T11:44:21;31.70;1.00
21928;DHT22;11128;51.096;17.190;2023-08-17T11:49:23;31.60;1.00
21928;DHT22;11128;51.096;17.190;2023-08-17T11:54:25;31.40;1.00
21928;DHT22;11128;51.096;17.190;2023-08-17T11:59:26;31.60;1.00
21928;DHT22;11128;51.096;17.190;2023-08-17T12:04:30;31.80;1.00
21928;DHT22;11128;51.096;17.190;2023-08-17T12:09:33;31.90;1.00
21928;DHT22;11128;51.096;17.190;2023-08-17T12:14:36;32.00;1.00
21928;DHT22;11128;51.096;17.190;2023-08-17T12:19:38;31.80;1.00
21928;DHT22;11128;51.096;17.190;2023-08-17T12:24:39;31.70;1.00
21928;DHT22;11128;51.096;17.190;2023-08-17T12:29:50;31.70;1.00
21928;DHT22;11128;51.096;17.190;2023-08-17T12:34:51;31.70;1.00
21928;DHT22;11128;51.096;17.190;2023-08-17T12:39:52;31.80;1.00
21928;DHT22;11128;51.096;17.190;2023-08-17T12:44:54;32.10;1.00
21928;DHT22;11128;51.096;17.190;2023-08-17T12:49:55;32.20;1.00
21928;DHT22;11128;51.096;17.190;2023-08-17T12:54:56;32.30;1.00
21928;DHT22;11128;51.096;17.190;2023-08-17T12:59:58;32.10;1.00
21928;DHT22;11128;51.096;17.190;2023-08-17T13:04:59;32.10;1.00
21928;DHT22;11128;51.096;17.190;2023-08-17T13:10:00;32.10;1.00
21928;DHT22;11128;51.096;17.190;2023-08-17T13:15:02;32.10;1.00
21928;DHT22;11128;51.096;17.190;2023-08-17T13:20:23;32.10;1.00
21928;DHT22;11128;51.096;17.190;2023-08-17T13:25:24;32.10;1.00
21928;DHT22;11128;51.096;17.190;2023-08-17T13:30:26;32.20;1.00
21928;DHT22;11128;51.096;17.190;2023-08-17T13:35:28;32.10;1.00
21928;DHT22;11128;51.096;17.190;2023-08-17T13:40:30;32.10;1.00
21928;DHT22;11128;51.096;17.190;2023-08-17T13:45:31;32.10;1.00
21928;DHT22;11128;51.096;17.190;2023-08-17T13:50:33;32.20;1.00
21928;DHT22;11128;51.096;17.190;2023-08-17T13:55:35;32.30;1.00
21928;DHT22;11128;51.096;17.190;2023-08-17T14:00:36;32.00;1.00
21928;DHT22;11128;51.096;17.190;2023-08-17T14:05:39;32.00;1.00
21928;DHT22;11128;51.096;17.190;2023-08-17T14:10:41;32.00;1.00
21928;DHT22;11128;51.096;17.190;2023-08-17T14:15:50;31.90;1.00
21928;DHT22;11128;51.096;17.190;2023-08-17T14:20:51;31.90;1.00
21928;DHT22;11128;51.096;17.190;2023-08-17T14:25:53;31.90;1.00
21928;DHT22;11128;51.096;17.190;2023-08-17T14:30:56;31.90;1.00
21928;DHT22;11128;51.096;17.190;2023-08-17T14:35:57;31.90;1.00
21928;DHT22;11128;51.096;17.190;2023-08-17T14:40:59;31.90;1.00
21928;DHT22;11128;51.096;17.190;2023-08-17T14:46:01;31.90;1.00
21928;DHT22;11128;51.096;17.190;2023-08-17T14:51:02;32.00;1.00
21928;DHT22;11128;51.096;17.190;2023-08-17T14:56:04;32.10;1.00
21928;DHT22;11128;51.096;17.190;2023-08-17T15:01:05;30.80;1.00
21928;DHT22;11128;51.096;17.190;2023-08-17T15:06:07;29.70;1.00
21928;DHT22;11128;51.096;17.190;2023-08-17T15:17:21;26.40;99.90
21928;DHT22;11128;51.096;17.190;2023-08-17T15:22:23;23.90;1.00
21928;DHT22;11128;51.096;17.190;2023-08-17T15:27:24;23.30;99.90
21928;DHT22;11128;51.096;17.190;2023-08-17T15:32:25;22.80;99.90
21928;DHT22;11128;51.096;17.190;2023-08-17T15:37:27;22.60;1.00
21928;DHT22;11128;51.096;17.190;2023-08-17T15:42:29;22.40;1.00
21928;DHT22;11128;51.096;17.190;2023-08-17T15:47:30;22.20;1.00
21928;DHT22;11128;51.096;17.190;2023-08-17T15:52:32;22.30;99.90
21928;DHT22;11128;51.096;17.190;2023-08-17T15:57:33;22.20;99.90
21928;DHT22;11128;51.096;17.190;2023-08-17T16:02:34;22.10;1.00
21928;DHT22;11128;51.096;17.190;2023-08-17T16:07:36;22.20;1.00
21928;DHT22;11128;51.096;17.190;2023-08-17T16:12:37;22.30;1.00
21928;DHT22;11128;51.096;17.190;2023-08-17T16:17:38;22.20;1.00
21928;DHT22;11128;51.096;17.190;2023-08-17T16:22:40;22.20;1.00
21928;DHT22;11128;51.096;17.190;2023-08-17T16:27:43;22.40;1.00
21928;DHT22;11128;51.096;17.190;2023-08-17T16:32:44;22.60;36.50
21928;DHT22;11128;51.096;17.190;2023-08-17T16:37:46;22.60;1.00
21928;DHT22;11128;51.096;17.190;2023-08-17T16:42:48;22.80;56.20
21928;DHT22;11128;51.096;17.190;2023-08-17T16:47:50;22.90;99.90
21928;DHT22;11128;51.096;17.190;2023-08-17T16:52:51;23.00;1.00
21928;DHT22;11128;51.096;17.190;2023-08-17T16:57:53;23.10;99.90
21928;DHT22;11128;51.096;17.190;2023-08-17T17:02:54;23.10;23.30
21928;DHT22;11128;51.096;17.190;2023-08-17T17:07:55;23.10;99.90
21928;DHT22;11128;51.096;17.190;2023-08-17T17:12:56;23.10;99.90
21928;DHT22;11128;51.096;17.190;2023-08-17T17:17:58;23.10;1.00
21928;DHT22;11128;51.096;17.190;2023-08-17T17:23:00;23.00;1.00
21928;DHT22;11128;51.096;17.190;2023-08-17T17:28:02;23.00;1.00
21928;DHT22;11128;51.096;17.190;2023-08-17T17:33:03;23.00;1.00
21928;DHT22;11128;51.096;17.190;2023-08-17T17:38:05;23.00;1.00
21928;DHT22;11128;51.096;17.190;2023-08-17T17:43:07;22.80;99.90
21928;DHT22;11128;51.096;17.190;2023-08-17T17:48:08;22.80;1.00
21928;DHT22;11128;51.096;17.190;2023-08-17T17:53:10;22.70;1.00
21928;DHT22;11128;51.096;17.190;2023-08-17T17:58:12;22.70;99.90
21928;DHT22;11128;51.096;17.190;2023-08-17T18:03:14;22.70;1.00
21928;DHT22;11128;51.096;17.190;2023-08-17T18:08:16;22.70;99.90
21928;DHT22;11128;51.096;17.190;2023-08-17T18:13:17;22.60;1.00
21928;DHT22;11128;51.096;17.190;2023-08-17T18:18:18;22.60;1.00
21928;DHT22;11128;51.096;17.190;2023-08-17T18:23:20;22.50;1.00
21928;DHT22;11128;51.096;17.190;2023-08-17T18:28:21;22.50;1.00
21928;DHT22;11128;51.096;17.190;2023-08-17T18:33:23;22.40;1.00
21928;DHT22;11128;51.096;17.190;2023-08-17T18:38:25;22.40;1.00
21928;DHT22;11128;51.096;17.190;2023-08-17T18:43:26;22.50;1.00
21928;DHT22;11128;51.096;17.190;2023-08-17T18:48:28;22.40;1.00
21928;DHT22;11128;51.096;17.190;2023-08-17T18:53:29;22.40;1.00
21928;DHT22;11128;51.096;17.190;2023-08-17T18:58:31;22.40;99.90
21928;DHT22;11128;51.096;17.190;2023-08-17T19:03:32;22.40;1.00
21928;DHT22;11128;51.096;17.190;2023-08-17T19:08:34;22.30;99.90
21928;DHT22;11128;51.096;17.190;2023-08-17T19:13:35;22.30;1.00
21928;DHT22;11128;51.096;17.190;2023-08-17T19:18:37;22.40;99.90
21928;DHT22;11128;51.096;17.190;2023-08-17T19:23:38;22.30;99.90
21928;DHT22;11128;51.096;17.190;2023-08-17T19:28:40;22.30;99.90
21928;DHT22;11128;51.096;17.190;2023-08-17T19:33:41;22.30;99.90
21928;DHT22;11128;51.096;17.190;2023-08-17T19:38:43;22.20;99.90
21928;DHT22;11128;51.096;17.190;2023-08-17T19:43:44;22.10;99.90
21928;DHT22;11128;51.096;17.190;2023-08-17T19:48:46;22.10;99.90
21928;DHT22;11128;51.096;17.190;2023-08-17T19:53:47;22.10;99.90
21928;DHT22;11128;51.096;17.190;2023-08-17T19:58:48;22.10;99.90
21928;DHT22;11128;51.096;17.190;2023-08-17T20:03:50;22.10;50.90
21928;DHT22;11128;51.096;17.190;2023-08-17T20:08:54;22.10;99.90
21928;DHT22;11128;51.096;17.190;2023-08-17T20:13:55;22.10;99.90
21928;DHT22;11128;51.096;17.190;2023-08-17T20:18:57;22.00;99.90
21928;DHT22;11128;51.096;17.190;2023-08-17T20:24:01;22.10;99.90
21928;DHT22;11128;51.096;17.190;2023-08-17T20:29:03;22.00;1.00
21928;DHT22;11128;51.096;17.190;2023-08-17T20:34:04;22.00;1.00
21928;DHT22;11128;51.096;17.190;2023-08-17T20:39:08;22.00;1.00
21928;DHT22;11128;51.096;17.190;2023-08-17T20:44:10;22.00;1.00
21928;DHT22;11128;51.096;17.190;2023-08-17T20:49:11;22.00;1.00
21928;DHT22;11128;51.096;17.190;2023-08-17T20:54:13;22.00;1.00
21928;DHT22;11128;51.096;17.190;2023-08-17T20:59:15;22.00;1.00
21928;DHT22;11128;51.096;17.190;2023-08-17T21:04:16;22.00;1.00
21928;DHT22;11128;51.096;17.190;2023-08-17T21:09:18;22.00;1.00
21928;DHT22;11128;51.096;17.190;2023-08-17T21:14:22;21.90;99.90
21928;DHT22;11128;51.096;17.190;2023-08-17T21:19:23;21.70;99.90
21928;DHT22;11128;51.096;17.190;2023-08-17T21:24:24;21.70;99.90
21928;DHT22;11128;51.096;17.190;2023-08-17T21:29:25;21.70;1.00
21928;DHT22;11128;51.096;17.190;2023-08-17T21:34:27;21.70;1.00
21928;DHT22;11128;51.096;17.190;2023-08-17T21:39:28;21.50;99.90
21928;DHT22;11128;51.096;17.190;2023-08-17T21:44:30;21.40;1.00
21928;DHT22;11128;51.096;17.190;2023-08-17T21:49:31;21.40;99.90
21928;DHT22;11128;51.096;17.190;2023-08-17T21:54:32;21.40;99.90
21928;DHT22;11128;51.096;17.190;2023-08-17T21:59:34;21.40;99.90
21928;DHT22;11128;51.096;17.190;2023-08-17T22:04:35;21.50;99.90
21928;DHT22;11128;51.096;17.190;2023-08-17T22:09:36;21.40;1.00
21928;DHT22;11128;51.096;17.190;2023-08-17T22:14:38;21.40;1.00
21928;DHT22;11128;51.096;17.190;2023-08-17T22:19:40;21.40;1.00
21928;DHT22;11128;51.096;17.190;2023-08-17T22:24:41;21.40;1.00
21928;DHT22;11128;51.096;17.190;2023-08-17T22:29:43;21.40;1.00
21928;DHT22;11128;51.096;17.190;2023-08-17T22:34:44;21.50;99.90
21928;DHT22;11128;51.096;17.190;2023-08-17T22:39:46;21.50;1.00
21928;DHT22;11128;51.096;17.190;2023-08-17T22:44:49;21.50;7.00
21928;DHT22;11128;51.096;17.190;2023-08-17T22:49:50;21.40;99.90
21928;DHT22;11128;51.096;17.190;2023-08-17T22:54:51;21.40;99.90
21928;DHT22;11128;51.096;17.190;2023-08-17T22:59:53;21.40;99.90
21928;DHT22;11128;51.096;17.190;2023-08-17T23:04:54;21.30;99.90
21928;DHT22;11128;51.096;17.190;2023-08-17T23:09:55;21.20;1.00
21928;DHT22;11128;51.096;17.190;2023-08-17T23:14:57;21.20;99.90
21928;DHT22;11128;51.096;17.190;2023-08-17T23:19:58;21.20;99.90
21928;DHT22;11128;51.096;17.190;2023-08-17T23:24:59;21.00;1.00
21928;DHT22;11128;51.096;17.190;2023-08-17T23:30:01;21.10;99.90
21928;DHT22;11128;51.096;17.190;2023-08-17T23:35:02;21.10;86.20
21928;DHT22;11128;51.096;17.190;2023-08-17T23:40:04;21.10;1.00
21928;DHT22;11128;51.096;17.190;2023-08-17T23:45:08;21.10;1.00
21928;DHT22;11128;51.096;17.190;2023-08-17T23:50:10;21.10;1.00
21928;DHT22;11128;51.096;17.190;2023-08-17T23:55:11;21.10;99.90
